Time;durP1;ratioP1;P1;durP2;ratioP2;P2;SDS_P1;SDS_P2;PMS_P1;PMS_P2;Temp;Humidity;BMP_temperature;BMP_pressure;BME280_temperature;BME280_humidity;BME280_pressure;Samples;Min_cycle;Max_cycle;Signal;HPM_P1;HPM_P2
2023/08/03 00:06:29;;;;;;;6.00;1.80;;;;;;;19.74;55.66;97914.71;436355;1250;138632;-65
2023/08/03 00:16:34;;;;;;;1.70;1.20;;;;;;;19.65;56.21;97922.92;436252;1251;140164;-67
2023/08/03 00:26:40;;;;;;;1.30;1.00;;;;;;;19.60;56.71;97930.39;436196;1251;141026;-67
2023/08/03 00:36:46;;;;;;;1.40;1.10;;;;;;;19.60;57.25;97913.65;436180;1250;138634;-67
2023/08/03 00:46:52;;;;;;;1.40;1.00;;;;;;;19.63;57.79;97896.45;436149;1253;138510;-67
2023/08/03 00:56:58;;;;;;;1.50;1.40;;;;;;;19.74;58.24;97850.66;436140;1253;139618;-66
2023/08/03 01:07:04;;;;;;;4.80;1.40;;;;;;;19.82;59.02;97870.55;436538;1253;138313;-67
2023/08/03 01:17:10;;;;;;;2.60;1.50;;;;;;;19.71;60.57;97869.41;436179;1250;138392;-69
2023/08/03 01:27:16;;;;;;;1.40;1.20;;;;;;;19.49;61.74;97905.13;436570;1253;139141;-65
2023/08/03 01:37:22;;;;;;;2.00;1.40;;;;;;;19.32;62.52;97903.84;436761;1250;139937;-65
2023/08/03 01:47:29;;;;;;;2.60;1.50;;;;;;;19.18;63.23;97914.41;437492;1250;139550;-66
2023/08/03 01:57:35;;;;;;;2.30;1.20;;;;;;;19.07;63.92;97903.98;436606;1250;139669;-65
2023/08/03 02:07:46;;;;;;;3.30;2.70;;;;;;;18.95;64.66;97839.32;436786;1251;139410;-67
2023/08/03 02:17:52;;;;;;;3.00;1.40;;;;;;;18.83;65.48;97896.79;436396;1251;140510;-68
2023/08/03 02:27:58;;;;;;;5.50;1.40;;;;;;;18.83;65.97;97880.11;436361;1251;139460;-66
2023/08/03 02:38:03;;;;;;;3.30;1.20;;;;;;;18.81;66.45;97873.29;436068;1253;139768;-68
2023/08/03 02:48:09;;;;;;;2.10;1.00;;;;;;;18.81;67.48;97825.60;436529;1250;140275;-66
2023/08/03 02:58:15;;;;;;;1.10;1.00;;;;;;;18.79;68.68;97817.66;436537;1250;140461;-65
2023/08/03 03:08:21;;;;;;;3.20;1.30;;;;;;;18.70;69.66;97844.89;436145;1253;139551;-67
2023/08/03 03:18:27;;;;;;;1.50;1.20;;;;;;;18.63;70.55;97872.80;436160;1251;139677;-65
2023/08/03 03:28:32;;;;;;;1.60;1.30;;;;;;;18.60;71.13;97884.92;436259;1252;139327;-66
2023/08/03 03:38:38;;;;;;;5.60;1.70;;;;;;;18.61;71.58;97900.68;436204;1253;139701;-65
2023/08/03 03:48:44;;;;;;;1.30;1.10;;;;;;;18.69;71.72;97925.08;436488;1252;139128;-65
2023/08/03 03:58:50;;;;;;;2.80;1.40;;;;;;;18.82;71.64;97912.16;435947;1250;139620;-65
2023/08/03 04:08:57;;;;;;;2.20;1.50;;;;;;;18.99;71.81;97924.64;436130;1250;140374;-66
2023/08/03 04:19:03;;;;;;;3.60;1.30;;;;;;;19.38;71.50;97936.06;436314;1253;139349;-66
2023/08/03 04:29:09;;;;;;;1.80;1.20;;;;;;;19.73;70.75;97936.92;436461;1253;140860;-66
2023/08/03 04:39:14;;;;;;;2.50;1.10;;;;;;;19.72;70.53;97967.67;436198;1253;140173;-65
2023/08/03 04:49:22;;;;;;;4.70;1.90;;;;;;;19.82;70.48;97954.94;436158;1250;139258;-66
2023/08/03 04:59:28;;;;;;;2.20;1.30;;;;;;;19.92;70.49;97939.87;436604;1253;139129;-66
2023/08/03 05:09:34;;;;;;;1.20;1.00;;;;;;;20.30;70.23;97963.58;436812;1253;140038;-68
2023/08/03 05:19:40;;;;;;;2.50;1.20;;;;;;;21.00;69.48;97991.39;436081;1250;140591;-65
2023/08/03 05:29:46;;;;;;;1.20;1.00;;;;;;;21.81;67.71;97998.29;436250;1253;139344;-65
2023/08/03 05:39:51;;;;;;;2.00;1.20;;;;;;;21.97;66.33;98043.88;436131;1250;139427;-66
2023/08/03 05:49:57;;;;;;;2.10;1.30;;;;;;;21.70;66.19;97993.56;436281;1250;140394;-65
2023/08/03 06:00:04;;;;;;;2.20;1.20;;;;;;;21.55;66.26;98044.77;436205;1253;139067;-65
2023/08/03 06:10:12;;;;;;;1.10;1.00;;;;;;;22.09;65.87;97950.87;437613;1253;139591;-65
2023/08/03 06:20:22;;;;;;;1.20;0.90;;;;;;;22.24;64.60;98022.92;437244;1253;139472;-64
2023/08/03 06:30:28;;;;;;;2.70;1.20;;;;;;;22.10;64.52;98068.95;437156;1253;141301;-63
2023/08/03 06:40:34;;;;;;;1.70;1.20;;;;;;;21.92;64.39;98024.48;436102;1251;139699;-62
2023/08/03 06:50:40;;;;;;;7.00;2.70;;;;;;;21.65;64.30;98084.36;438196;1251;139585;-69
2023/08/03 07:00:46;;;;;;;2.60;1.30;;;;;;;21.45;64.53;98041.98;436297;1250;139973;-68
2023/08/03 07:10:52;;;;;;;2.90;1.30;;;;;;;21.25;65.22;97954.04;436287;1253;139174;-66
2023/08/03 07:21:03;;;;;;;2.50;1.20;;;;;;;21.04;66.47;98128.93;435851;1251;139502;-62
2023/08/03 07:31:15;;;;;;;1.70;1.10;;;;;;;20.72;67.17;98110.20;436059;1253;139844;-68
2023/08/03 07:41:21;;;;;;;2.80;0.90;;;;;;;20.53;68.37;98108.98;439332;1251;183055;-71
2023/08/03 07:51:27;;;;;;;2.30;1.30;;;;;;;20.50;68.61;98113.15;436452;1251;139507;-71
2023/08/03 08:01:33;;;;;;;2.80;1.10;;;;;;;20.56;68.16;98138.44;439070;1253;139761;-65
2023/08/03 08:11:39;;;;;;;1.30;1.00;;;;;;;20.59;67.93;98172.56;436392;1250;139775;-72
2023/08/03 08:21:45;;;;;;;5.40;4.90;;;;;;;20.61;67.58;98141.80;435369;1251;139518;-71
2023/08/03 08:31:54;;;;;;;2.80;1.80;;;;;;;20.61;67.31;98157.70;439252;1250;139196;-71
2023/08/03 08:42:09;;;;;;;2.40;1.10;;;;;;;20.76;66.86;98119.96;439113;1250;139170;-72
2023/08/03 08:52:17;;;;;;;1.30;0.90;;;;;;;20.85;66.36;98119.66;439192;1253;139458;-72
2023/08/03 09:02:24;;;;;;;;;;;;;;;20.89;65.43;98109.98;439482;1253;139470;-73
2023/08/03 09:12:30;;;;;;;3.90;1.00;;;;;;;20.88;64.66;98174.04;439699;1253;126238;-72
2023/08/03 09:22:44;;;;;;;3.20;1.00;;;;;;;20.90;64.25;98173.27;439075;1253;139128;-71
2023/08/03 09:32:53;;;;;;;2.10;1.10;;;;;;;20.88;64.07;98179.20;438747;1250;139168;-67
2023/08/03 09:43:00;;;;;;;3.20;1.40;;;;;;;20.91;63.70;98187.06;437753;1250;139542;-72
2023/08/03 09:53:15;;;;;;;1.30;0.80;;;;;;;20.93;63.26;98110.43;439927;1250;139188;-77
2023/08/03 10:03:22;;;;;;;4.90;1.10;;;;;;;20.74;63.63;98156.23;442753;1251;139941;-82
2023/08/03 10:13:32;;;;;;;3.40;0.90;;;;;;;20.98;63.95;98133.52;439632;1250;140172;-81
2023/08/03 10:23:39;;;;;;;1.10;0.90;;;;;;;20.99;64.00;98149.16;438867;1253;138973;-74
2023/08/03 10:34:04;;;;;;;10.10;1.60;;;;;;;21.12;64.61;98197.76;437018;1253;139457;-66
2023/08/03 10:44:27;;;;;;;2.90;0.90;;;;;;;21.44;64.63;98225.55;436228;1253;141080;-67
2023/08/03 10:54:34;;;;;;;2.40;1.40;;;;;;;21.67;64.35;98236.36;438210;1251;139243;-70
2023/08/03 11:04:39;;;;;;;3.80;0.80;;;;;;;21.59;64.00;98192.95;438316;1253;139777;-62
2023/08/03 11:14:48;;;;;;;1.60;0.80;;;;;;;21.95;64.20;98201.87;437040;1253;140544;-61
2023/08/03 11:24:55;;;;;;;1.90;1.50;;;;;;;22.83;62.63;98173.36;436094;1254;139204;-60
2023/08/03 11:35:03;;;;;;;2.20;1.00;;;;;;;23.19;61.14;98198.54;436252;1254;139191;-60
2023/08/03 11:45:13;;;;;;;1.40;0.70;;;;;;;23.30;59.74;98181.16;436321;1251;140360;-67
2023/08/03 11:55:30;;;;;;;6.50;1.30;;;;;;;23.09;59.22;98182.08;436555;1256;141048;-66
2023/08/03 12:05:50;;;;;;;1.40;1.20;;;;;;;22.87;58.95;98176.58;437697;1250;138475;-74
2023/08/03 12:16:11;;;;;;;2.90;1.00;;;;;;;23.62;57.79;98179.96;439009;1253;139310;-73
2023/08/03 12:26:17;;;;;;;3.70;0.80;;;;;;;23.86;56.44;98178.48;439263;1253;138885;-70
2023/08/03 12:36:23;;;;;;;3.30;0.70;;;;;;;23.49;55.62;98176.42;439218;1253;139350;-66
2023/08/03 12:46:29;;;;;;;3.30;1.20;;;;;;;23.66;54.91;98184.89;436215;1254;138294;-67
2023/08/03 12:56:38;;;;;;;2.10;0.90;;;;;;;24.14;53.61;98179.31;436598;1251;139394;-74
2023/08/03 13:06:44;;;;;;;2.90;0.80;;;;;;;24.41;52.78;98185.31;439416;1250;138928;-71
2023/08/03 13:16:50;;;;;;;2.70;0.90;;;;;;;24.52;51.68;98189.11;439196;1253;138801;-70
2023/08/03 13:27:13;;;;;;;2.50;0.60;;;;;;;24.70;51.19;98200.63;439186;1251;138910;-70
2023/08/03 13:37:19;;;;;;;3.40;0.80;;;;;;;25.18;50.37;98203.94;439072;1251;138750;-74
2023/08/03 13:47:25;;;;;;;4.00;1.90;;;;;;;25.02;49.56;98209.95;439301;1251;138357;-81
2023/08/03 13:57:31;;;;;;;3.70;0.90;;;;;;;24.44;49.78;98210.45;439230;1251;138759;-72
2023/08/03 14:07:40;;;;;;;2.90;0.80;;;;;;;24.06;50.20;98212.45;439068;1251;140018;-66
2023/08/03 14:17:48;;;;;;;1.20;0.90;;;;;;;24.22;50.53;98207.70;436267;1254;138453;-66
2023/08/03 14:27:57;;;;;;;2.10;0.70;;;;;;;24.34;50.14;98199.38;437127;1253;139795;-67
2023/08/03 14:38:23;;;;;;;3.50;0.70;;;;;;;24.10;50.19;98208.67;436444;1253;138289;-67
2023/08/03 14:48:31;;;;;;;2.40;0.80;;;;;;;24.11;50.03;98219.06;439456;1251;138884;-72
2023/08/03 14:58:39;;;;;;;6.00;0.90;;;;;;;23.98;50.18;98224.64;439521;1253;138626;-65
2023/08/03 15:08:45;;;;;;;0.70;0.50;;;;;;;23.85;50.33;98225.17;438029;1251;138461;-66
2023/08/03 15:18:51;;;;;;;3.50;0.50;;;;;;;23.60;49.99;98230.40;436670;1251;138715;-67
2023/08/03 15:28:59;;;;;;;1.70;0.70;;;;;;;23.71;50.33;98227.36;436316;1253;138979;-67
2023/08/03 15:39:06;;;;;;;4.50;0.90;;;;;;;23.89;50.01;98229.33;436771;1254;138534;-67
2023/08/03 15:49:15;;;;;;;2.20;1.50;;;;;;;23.91;49.74;98241.20;436930;1253;139081;-66
2023/08/03 15:59:26;;;;;;;0.60;0.50;;;;;;;24.06;49.41;98236.27;436731;1251;139056;-65
2023/08/03 16:09:33;;;;;;;3.80;1.00;;;;;;;23.97;48.87;98233.11;436072;1253;138776;-65
2023/08/03 16:19:39;;;;;;;3.00;0.70;;;;;;;23.75;48.83;98239.95;436181;1251;140450;-64
2023/08/03 16:29:45;;;;;;;1.50;0.60;;;;;;;24.10;48.73;98249.85;436473;1253;140021;-64
2023/08/03 16:39:55;;;;;;;2.80;0.90;;;;;;;24.07;47.93;98251.84;436014;1250;139131;-64
2023/08/03 16:50:01;;;;;;;4.10;0.90;;;;;;;23.77;47.92;98251.56;436000;1253;138760;-64
2023/08/03 17:00:13;;;;;;;1.90;0.40;;;;;;;23.64;47.81;98260.85;436533;1250;138433;-65
2023/08/03 17:10:19;;;;;;;1.10;0.70;;;;;;;23.77;47.51;98276.91;436827;1251;139306;-64
2023/08/03 17:20:25;;;;;;;2.00;0.60;;;;;;;23.68;47.28;98289.46;436554;1250;138396;-65
2023/08/03 17:30:31;;;;;;;2.70;0.90;;;;;;;23.52;47.64;98298.20;436425;1251;140307;-65
2023/08/03 17:40:37;;;;;;;5.00;1.20;;;;;;;23.08;48.48;98298.41;436571;1253;138383;-65
2023/08/03 17:50:43;;;;;;;2.40;1.40;;;;;;;22.60;49.44;98311.25;436364;1250;138943;-65
2023/08/03 18:00:50;;;;;;;3.00;1.30;;;;;;;22.21;50.52;98320.69;436287;1250;138864;-65
2023/08/03 18:11:02;;;;;;;6.10;1.90;;;;;;;21.86;51.67;98334.70;436753;1253;138559;-66
2023/08/03 18:21:15;;;;;;;2.00;1.10;;;;;;;21.43;52.51;98347.78;436350;1250;138964;-65
2023/08/03 18:31:21;;;;;;;2.40;0.90;;;;;;;21.03;53.46;98363.19;436382;1251;139051;-64
2023/08/03 18:41:27;;;;;;;2.30;0.80;;;;;;;20.70;54.11;98382.05;436404;1253;138892;-67
2023/08/03 18:51:34;;;;;;;3.90;0.90;;;;;;;20.47;54.70;98394.98;436032;1251;139993;-66
2023/08/03 19:01:40;;;;;;;2.90;1.40;;;;;;;20.27;55.36;98408.88;436208;1250;139015;-66
2023/08/03 19:11:46;;;;;;;2.70;1.40;;;;;;;20.02;56.14;98431.21;436316;1250;139890;-64
2023/08/03 19:21:53;;;;;;;1.50;1.20;;;;;;;19.77;56.72;98445.19;436799;1250;139488;-67
2023/08/03 19:31:58;;;;;;;2.00;0.90;;;;;;;19.57;57.24;98455.11;436604;1250;139037;-66
2023/08/03 19:42:05;;;;;;;3.00;0.90;;;;;;;19.36;57.71;98466.37;435927;1250;207676;-67
2023/08/03 19:52:11;;;;;;;5.40;1.30;;;;;;;19.18;58.17;98473.88;436540;1250;138629;-66
2023/08/03 20:02:20;;;;;;;5.10;1.20;;;;;;;18.96;58.95;98493.05;436523;1250;139697;-66
2023/08/03 20:12:29;;;;;;;2.10;1.10;;;;;;;18.73;59.82;98497.41;436867;1250;138270;-66
2023/08/03 20:22:37;;;;;;;2.40;0.80;;;;;;;18.59;60.58;98501.54;435930;1251;138400;-66
2023/08/03 20:32:43;;;;;;;3.30;1.50;;;;;;;18.46;61.13;98516.45;436521;1250;139526;-65
2023/08/03 20:42:49;;;;;;;3.40;1.30;;;;;;;18.31;61.53;98526.46;436897;1251;139142;-64
2023/08/03 20:52:56;;;;;;;2.00;1.30;;;;;;;18.16;61.87;98532.13;436577;1251;140380;-65
2023/08/03 21:03:02;;;;;;;2.20;0.90;;;;;;;18.01;62.43;98543.65;436539;1253;139376;-66
2023/08/03 21:13:11;;;;;;;3.60;1.40;;;;;;;17.88;62.99;98551.42;437182;1251;139535;-66
2023/08/03 21:23:17;;;;;;;1.90;1.10;;;;;;;17.76;63.79;98561.34;436323;1253;139281;-66
2023/08/03 21:33:23;;;;;;;3.70;1.60;;;;;;;17.63;64.28;98574.13;436222;1251;140301;-66
2023/08/03 21:43:29;;;;;;;2.70;0.90;;;;;;;17.47;64.90;98579.30;436111;1253;140463;-65
2023/08/03 21:53:36;;;;;;;4.00;1.00;;;;;;;17.32;65.52;98591.48;436297;1250;139122;-63
2023/08/03 22:03:41;;;;;;;2.70;1.20;;;;;;;17.13;66.07;98593.16;436404;1253;140219;-65
2023/08/03 22:13:47;;;;;;;4.20;2.40;;;;;;;16.90;66.66;98607.44;436207;1253;141210;-66
2023/08/03 22:23:53;;;;;;;1.80;1.00;;;;;;;16.72;67.37;98621.65;436502;1253;139311;-66
2023/08/03 22:33:59;;;;;;;3.00;1.90;;;;;;;16.59;68.00;98638.74;436346;1253;140736;-67
2023/08/03 22:44:05;;;;;;;2.60;1.40;;;;;;;16.46;68.66;98638.77;436556;1250;139927;-67
2023/08/03 22:54:11;;;;;;;2.50;1.60;;;;;;;16.34;69.17;98647.66;436466;1251;139196;-66
2023/08/03 23:04:17;;;;;;;3.50;1.80;;;;;;;16.19;69.81;98647.45;436188;1251;139582;-65
2023/08/03 23:14:23;;;;;;;2.10;1.40;;;;;;;16.08;70.43;98655.23;436238;1253;139094;-65
2023/08/03 23:24:29;;;;;;;2.50;1.10;;;;;;;15.99;70.95;98653.27;436277;1252;140045;-67
2023/08/03 23:34:34;;;;;;;3.50;1.00;;;;;;;15.88;71.52;98643.63;435980;1251;139623;-67
2023/08/03 23:44:40;;;;;;;2.00;1.00;;;;;;;15.76;72.11;98651.73;435993;1250;140429;-67
2023/08/03 23:54:46;;;;;;;4.90;1.60;;;;;;;15.65;72.73;98676.03;435858;1250;139539;-67
